EWG14T LOWG-LEPA
Flight info
| Callsign | EWG14T |
|---|---|
| Flight time | N/A |
| Altitude | 36000 |
| Route | RADLY DCT PENEP DCT ROPUS DCT RIFEN DCT BETMU DCT PIDAD DCT TALEP DCT RARQU DCT BALEN UT250 RIXOT |
| Aircraft | A320/M-SDE3FGHIRWY/LB1 |
Departure
| Time | 2026-05-04 08:37 |
|---|---|
| Airport | Graz Airport (LOWG) |
Arrival
| Time | N/A |
|---|---|
| Airport | Palma de Mallorca Airport (LEPA) |
| Time | Latitude | Longitude | Altitude | Speed | Heading |
|---|---|---|---|---|---|
| 2026-05-04 08:24 | 46.99651 | 15.44293 | 1112 ft | 0 kts | 126° |
| 2026-05-04 08:27 | 46.99625 | 15.44308 | 1110 ft | 5 kts | 195° |
| 2026-05-04 08:28 | 46.99627 | 15.44244 | 1112 ft | 9 kts | 292° |
| 2026-05-04 08:28 | 46.99686 | 15.44204 | 1108 ft | 10 kts | 350° |
| 2026-05-04 08:28 | 46.99747 | 15.44188 | 1111 ft | 8 kts | 349° |
| 2026-05-04 08:28 | 46.99799 | 15.44175 | 1112 ft | 7 kts | 0° |
| 2026-05-04 08:29 | 46.99829 | 15.44214 | 1108 ft | 4 kts | 72° |
| 2026-05-04 08:29 | 46.99829 | 15.44233 | 1113 ft | 0 kts | 96° |
| 2026-05-04 08:29 | 46.99828 | 15.44236 | 1113 ft | 3 kts | 100° |
| 2026-05-04 08:31 | 46.99446 | 15.44256 | 1110 ft | 5 kts | 211° |
| 2026-05-04 08:33 | 46.98785 | 15.44036 | 1109 ft | 33 kts | 172° |
| 2026-05-04 08:33 | 46.98526 | 15.44114 | 1109 ft | 43 kts | 169° |
| 2026-05-04 08:35 | 46.97805 | 15.44313 | 1107 ft | 1 kts | 341° |
| 2026-05-04 08:35 | 46.97835 | 15.44311 | 1111 ft | 3 kts | 351° |
| 2026-05-04 08:35 | 46.97839 | 15.44310 | 1111 ft | 0 kts | 348° |
| 2026-05-04 08:37 | 47.03113 | 15.42854 | 2527 ft | 189 kts | 349° |
| 2026-05-04 08:37 | 47.04475 | 15.42467 | 2675 ft | 210 kts | 348° |
| 2026-05-04 08:37 | 47.05980 | 15.42040 | 2807 ft | 230 kts | 348° |
| 2026-05-04 08:38 | 47.07609 | 15.41580 | 2937 ft | 253 kts | 348° |
| 2026-05-04 08:38 | 47.09397 | 15.41079 | 3232 ft | 267 kts | 348° |
| 2026-05-04 08:38 | 47.11224 | 15.40471 | 3760 ft | 270 kts | 337° |
| 2026-05-04 08:40 | 47.08988 | 15.27498 | 7380 ft | 274 kts | 184° |
| 2026-05-04 08:40 | 47.07078 | 15.27358 | 7840 ft | 276 kts | 184° |
| 2026-05-04 08:40 | 47.05180 | 15.27216 | 8204 ft | 277 kts | 184° |
| 2026-05-04 08:41 | 47.03250 | 15.27069 | 8680 ft | 278 kts | 184° |
| 2026-05-04 08:41 | 47.01313 | 15.26921 | 9138 ft | 279 kts | 184° |
| 2026-05-04 08:41 | 46.99363 | 15.26772 | 9583 ft | 281 kts | 184° |
| 2026-05-04 08:41 | 46.97408 | 15.26623 | 10040 ft | 281 kts | 184° |
| 2026-05-04 08:42 | 46.95435 | 15.26474 | 10287 ft | 289 kts | 184° |
| 2026-05-04 08:42 | 46.93390 | 15.26317 | 10417 ft | 299 kts | 184° |
| 2026-05-04 08:42 | 46.91283 | 15.26154 | 10533 ft | 308 kts | 184° |
| 2026-05-04 08:42 | 46.89119 | 15.25986 | 10678 ft | 314 kts | 184° |
| 2026-05-04 08:43 | 46.86937 | 15.25682 | 10891 ft | 316 kts | 189° |
| 2026-05-04 08:43 | 46.84744 | 15.25206 | 11107 ft | 318 kts | 189° |
| 2026-05-04 08:43 | 46.82553 | 15.24733 | 11322 ft | 320 kts | 189° |
| 2026-05-04 08:43 | 46.80334 | 15.24255 | 11530 ft | 323 kts | 189° |
| 2026-05-04 08:44 | 46.78138 | 15.23780 | 11742 ft | 324 kts | 189° |
| 2026-05-04 08:44 | 46.75905 | 15.23300 | 11960 ft | 325 kts | 189° |
| 2026-05-04 08:46 | 46.61514 | 15.15217 | 13379 ft | 332 kts | 230° |
| 2026-05-04 08:46 | 46.60065 | 15.12596 | 13570 ft | 333 kts | 230° |
| 2026-05-04 08:46 | 46.58608 | 15.09975 | 13747 ft | 333 kts | 230° |
| 2026-05-04 08:46 | 46.57143 | 15.07349 | 13915 ft | 334 kts | 230° |
| 2026-05-04 08:47 | 46.55700 | 15.04766 | 14056 ft | 335 kts | 230° |
| 2026-05-04 08:47 | 46.54227 | 15.02142 | 14202 ft | 335 kts | 230° |
| 2026-05-04 08:47 | 46.52750 | 14.99508 | 14358 ft | 336 kts | 230° |
| 2026-05-04 08:47 | 46.51279 | 14.96879 | 14507 ft | 337 kts | 230° |
| 2026-05-04 08:48 | 46.49797 | 14.94232 | 14638 ft | 337 kts | 230° |
| 2026-05-04 08:48 | 46.48312 | 14.91581 | 14769 ft | 338 kts | 230° |
| 2026-05-04 08:48 | 46.46830 | 14.88939 | 14901 ft | 338 kts | 230° |
| 2026-05-04 08:48 | 46.45340 | 14.86286 | 15039 ft | 339 kts | 230° |
| 2026-05-04 08:49 | 46.43844 | 14.83630 | 15172 ft | 339 kts | 230° |
| 2026-05-04 08:50 | 46.34944 | 14.67859 | 16015 ft | 336 kts | 229° |
| 2026-05-04 08:50 | 46.33463 | 14.65238 | 16131 ft | 336 kts | 229° |
| 2026-05-04 08:51 | 46.31976 | 14.62612 | 16268 ft | 337 kts | 229° |
| 2026-05-04 08:51 | 46.30489 | 14.59992 | 16392 ft | 337 kts | 229° |
| 2026-05-04 08:51 | 46.28999 | 14.57372 | 16518 ft | 336 kts | 229° |
| 2026-05-04 08:51 | 46.27513 | 14.54758 | 16652 ft | 336 kts | 228° |
| 2026-05-04 08:52 | 46.26026 | 14.52142 | 16784 ft | 336 kts | 229° |
| 2026-05-04 08:52 | 46.24538 | 14.49532 | 16908 ft | 337 kts | 229° |
| 2026-05-04 08:52 | 46.23048 | 14.46921 | 17042 ft | 337 kts | 229° |
| 2026-05-04 08:52 | 46.21552 | 14.44302 | 17172 ft | 337 kts | 229° |
| 2026-05-04 08:53 | 46.20059 | 14.41686 | 17301 ft | 338 kts | 229° |
| 2026-05-04 08:54 | 46.10438 | 14.22535 | 18221 ft | 339 kts | 239° |
| 2026-05-04 08:55 | 46.09283 | 14.19577 | 18356 ft | 339 kts | 239° |
| 2026-05-04 08:55 | 46.08126 | 14.16622 | 18485 ft | 339 kts | 238° |
| 2026-05-04 08:55 | 46.06962 | 14.13674 | 18595 ft | 338 kts | 238° |
| 2026-05-04 08:55 | 46.05795 | 14.10732 | 18715 ft | 338 kts | 238° |
| 2026-05-04 08:57 | 45.97645 | 13.90239 | 19545 ft | 337 kts | 239° |
| 2026-05-04 09:01 | 45.81320 | 13.49633 | 21286 ft | 334 kts | 239° |
| 2026-05-04 09:01 | 45.80150 | 13.46755 | 21406 ft | 334 kts | 239° |
| 2026-05-04 09:01 | 45.78984 | 13.43885 | 21537 ft | 334 kts | 239° |
| 2026-05-04 09:01 | 45.77809 | 13.41004 | 21665 ft | 334 kts | 239° |
| 2026-05-04 09:02 | 45.76649 | 13.38163 | 21793 ft | 334 kts | 240° |
| 2026-05-04 09:02 | 45.75477 | 13.35290 | 21922 ft | 334 kts | 240° |
| 2026-05-04 09:02 | 45.74300 | 13.32411 | 22051 ft | 334 kts | 240° |
| 2026-05-04 09:02 | 45.73126 | 13.29539 | 22178 ft | 334 kts | 240° |
| 2026-05-04 09:03 | 45.71952 | 13.26671 | 22308 ft | 334 kts | 240° |
| 2026-05-04 09:03 | 45.70774 | 13.23800 | 22440 ft | 334 kts | 240° |
| 2026-05-04 09:03 | 45.69599 | 13.20938 | 22557 ft | 333 kts | 240° |
| 2026-05-04 09:03 | 45.68423 | 13.18082 | 22705 ft | 333 kts | 240° |
| 2026-05-04 09:04 | 45.67247 | 13.15228 | 22827 ft | 333 kts | 240° |
| 2026-05-04 09:04 | 45.66088 | 13.12416 | 22960 ft | 333 kts | 240° |
| 2026-05-04 09:04 | 45.64910 | 13.09564 | 23099 ft | 332 kts | 240° |
| 2026-05-04 09:04 | 45.63732 | 13.06714 | 23226 ft | 332 kts | 240° |
| 2026-05-04 09:05 | 45.62558 | 13.03868 | 23362 ft | 332 kts | 240° |
| 2026-05-04 09:05 | 45.61382 | 13.01019 | 23494 ft | 332 kts | 240° |
| 2026-05-04 09:05 | 45.60209 | 12.98180 | 23632 ft | 332 kts | 240° |
| 2026-05-04 09:05 | 45.59036 | 12.95343 | 23758 ft | 331 kts | 240° |
| 2026-05-04 09:06 | 45.57875 | 12.92536 | 23861 ft | 331 kts | 240° |
| 2026-05-04 09:07 | 45.49665 | 12.72833 | 24677 ft | 328 kts | 240° |
| 2026-05-04 09:08 | 45.48495 | 12.70033 | 24796 ft | 328 kts | 240° |
| 2026-05-04 09:08 | 45.47326 | 12.67241 | 24910 ft | 327 kts | 240° |
| 2026-05-04 09:08 | 45.46176 | 12.64497 | 25025 ft | 327 kts | 240° |
| 2026-05-04 09:08 | 45.45013 | 12.61720 | 25144 ft | 326 kts | 240° |
| 2026-05-04 09:09 | 45.43853 | 12.58949 | 25265 ft | 325 kts | 240° |
| 2026-05-04 09:09 | 45.42695 | 12.56186 | 25384 ft | 325 kts | 240° |
| 2026-05-04 09:09 | 45.41535 | 12.53424 | 25509 ft | 324 kts | 240° |
| 2026-05-04 09:09 | 45.40377 | 12.50678 | 25625 ft | 323 kts | 240° |
| 2026-05-04 09:10 | 45.39219 | 12.47941 | 25752 ft | 322 kts | 240° |
| 2026-05-04 09:10 | 45.38453 | 12.46131 | 25833 ft | 322 kts | 240° |
| 2026-05-04 09:10 | 45.37301 | 12.43408 | 25955 ft | 321 kts | 240° |
| 2026-05-04 09:10 | 45.36152 | 12.40693 | 26078 ft | 320 kts | 240° |
| 2026-05-04 09:11 | 45.35006 | 12.37979 | 26203 ft | 319 kts | 240° |
| 2026-05-04 09:11 | 45.33869 | 12.35285 | 26326 ft | 318 kts | 240° |
| 2026-05-04 09:11 | 45.32730 | 12.32588 | 26453 ft | 317 kts | 240° |
| 2026-05-04 09:11 | 45.31594 | 12.29903 | 26578 ft | 316 kts | 240° |
| 2026-05-04 09:12 | 45.30461 | 12.27234 | 26695 ft | 315 kts | 240° |
| 2026-05-04 09:12 | 45.29330 | 12.24576 | 26828 ft | 314 kts | 240° |
| 2026-05-04 09:14 | 45.21561 | 12.06360 | 27733 ft | 305 kts | 240° |
| 2026-05-04 09:14 | 45.20464 | 12.03789 | 27865 ft | 304 kts | 240° |
| 2026-05-04 09:14 | 45.19367 | 12.01225 | 27995 ft | 303 kts | 240° |
| 2026-05-04 09:14 | 45.18275 | 11.98680 | 28135 ft | 301 kts | 239° |
| 2026-05-04 09:15 | 45.17187 | 11.96150 | 28268 ft | 300 kts | 239° |
| 2026-05-04 09:15 | 45.16117 | 11.93659 | 28399 ft | 298 kts | 239° |
| 2026-05-04 09:15 | 45.15041 | 11.91156 | 28537 ft | 297 kts | 239° |
| 2026-05-04 09:15 | 45.13968 | 11.88661 | 28671 ft | 295 kts | 239° |
| 2026-05-04 09:17 | 45.05669 | 11.69458 | 29779 ft | 276 kts | 240° |
| 2026-05-04 09:18 | 45.04676 | 11.67159 | 29913 ft | 272 kts | 240° |
| 2026-05-04 09:18 | 45.03692 | 11.64884 | 30007 ft | 271 kts | 240° |
| 2026-05-04 09:18 | 45.02707 | 11.62607 | 29988 ft | 273 kts | 240° |
| 2026-05-04 09:18 | 45.01713 | 11.60306 | 29954 ft | 275 kts | 240° |
| 2026-05-04 09:19 | 45.00713 | 11.57996 | 30007 ft | 274 kts | 240° |
| 2026-05-04 09:19 | 44.99725 | 11.55713 | 30101 ft | 272 kts | 240° |
| 2026-05-04 09:19 | 44.98735 | 11.53427 | 30133 ft | 273 kts | 239° |
| 2026-05-04 09:19 | 44.97742 | 11.51133 | 30116 ft | 275 kts | 239° |
| 2026-05-04 09:20 | 44.96743 | 11.48826 | 30125 ft | 276 kts | 239° |
| 2026-05-04 09:20 | 44.95745 | 11.46522 | 30198 ft | 274 kts | 239° |
| 2026-05-04 09:20 | 44.94749 | 11.44226 | 30261 ft | 273 kts | 239° |
| 2026-05-04 09:20 | 44.93755 | 11.41936 | 30264 ft | 274 kts | 239° |
| 2026-05-04 09:21 | 44.92755 | 11.39632 | 30258 ft | 276 kts | 239° |
| 2026-05-04 09:21 | 44.91753 | 11.37326 | 30283 ft | 275 kts | 239° |
| 2026-05-04 09:21 | 44.90772 | 11.35071 | 30301 ft | 272 kts | 239° |
| 2026-05-04 09:21 | 44.89771 | 11.32774 | 30225 ft | 276 kts | 239° |
| 2026-05-04 09:22 | 44.88764 | 11.30462 | 30220 ft | 277 kts | 239° |
| 2026-05-04 09:22 | 44.87758 | 11.28155 | 30331 ft | 274 kts | 239° |
| 2026-05-04 09:22 | 44.86767 | 11.25884 | 30402 ft | 272 kts | 239° |
| 2026-05-04 09:22 | 44.85768 | 11.23595 | 30363 ft | 275 kts | 239° |
| 2026-05-04 09:23 | 44.84747 | 11.21256 | 30043 ft | 288 kts | 239° |
| 2026-05-04 09:23 | 44.83667 | 11.18780 | 29644 ft | 302 kts | 239° |
| 2026-05-04 09:23 | 44.82558 | 11.16237 | 29333 ft | 313 kts | 238° |
| 2026-05-04 09:23 | 44.81387 | 11.13633 | 29270 ft | 316 kts | 237° |
| 2026-05-04 09:25 | 44.72926 | 10.94898 | 29738 ft | 348 kts | 238° |
| 2026-05-04 09:25 | 44.71625 | 10.91969 | 29899 ft | 358 kts | 238° |
| 2026-05-04 09:26 | 44.70285 | 10.88964 | 30041 ft | 367 kts | 238° |
| 2026-05-04 09:26 | 44.68908 | 10.85877 | 30187 ft | 376 kts | 238° |
| 2026-05-04 09:26 | 44.67498 | 10.82722 | 30316 ft | 384 kts | 238° |
| 2026-05-04 09:26 | 44.66040 | 10.79530 | 30438 ft | 392 kts | 237° |
| 2026-05-04 09:27 | 44.64519 | 10.76313 | 30561 ft | 399 kts | 236° |
| 2026-05-04 09:27 | 44.62949 | 10.73062 | 30692 ft | 405 kts | 236° |
| 2026-05-04 09:27 | 44.61346 | 10.69769 | 30816 ft | 412 kts | 236° |
| 2026-05-04 09:27 | 44.59745 | 10.66471 | 30939 ft | 417 kts | 236° |
| 2026-05-04 09:28 | 44.58108 | 10.63078 | 31111 ft | 421 kts | 236° |
| 2026-05-04 09:28 | 44.56462 | 10.59660 | 31344 ft | 423 kts | 236° |
| 2026-05-04 09:28 | 44.54813 | 10.56233 | 31565 ft | 425 kts | 236° |
| 2026-05-04 09:28 | 44.53161 | 10.52793 | 31835 ft | 426 kts | 236° |
| 2026-05-04 09:29 | 44.51508 | 10.49352 | 32166 ft | 425 kts | 236° |
| 2026-05-04 09:29 | 44.49858 | 10.45923 | 32518 ft | 424 kts | 236° |
| 2026-05-04 09:29 | 44.48209 | 10.42506 | 32865 ft | 423 kts | 236° |
| 2026-05-04 09:29 | 44.46561 | 10.39105 | 33207 ft | 422 kts | 236° |
| 2026-05-04 09:30 | 44.44964 | 10.35812 | 33521 ft | 421 kts | 236° |
| 2026-05-04 09:30 | 44.43318 | 10.32421 | 33845 ft | 421 kts | 236° |
| 2026-05-04 09:30 | 44.41676 | 10.29043 | 34170 ft | 421 kts | 237° |
| 2026-05-04 09:30 | 44.40031 | 10.25662 | 34439 ft | 420 kts | 237° |
| 2026-05-04 09:31 | 44.38385 | 10.22277 | 34718 ft | 420 kts | 237° |
| 2026-05-04 09:31 | 44.36745 | 10.18903 | 34991 ft | 419 kts | 236° |
| 2026-05-04 09:31 | 44.35108 | 10.15541 | 35283 ft | 418 kts | 236° |
| 2026-05-04 09:31 | 44.33472 | 10.12191 | 35534 ft | 417 kts | 236° |
| 2026-05-04 09:32 | 44.31859 | 10.08892 | 35791 ft | 416 kts | 236° |
| 2026-05-04 09:32 | 44.30227 | 10.05554 | 36023 ft | 416 kts | 236° |
| 2026-05-04 09:34 | 44.18875 | 9.82482 | 36165 ft | 410 kts | 236° |
| 2026-05-04 09:34 | 44.17280 | 9.79253 | 36164 ft | 408 kts | 236° |
| 2026-05-04 09:34 | 44.14060 | 9.72747 | 36160 ft | 408 kts | 236° |
| 2026-05-04 09:35 | 44.10836 | 9.66251 | 36158 ft | 408 kts | 236° |
| 2026-05-04 09:35 | 44.07611 | 9.59762 | 36157 ft | 408 kts | 236° |
| 2026-05-04 09:37 | 43.94697 | 9.33922 | 36166 ft | 406 kts | 236° |
| 2026-05-04 09:38 | 43.91474 | 9.27492 | 36157 ft | 406 kts | 236° |
| 2026-05-04 09:38 | 43.88246 | 9.21085 | 36159 ft | 405 kts | 236° |
| 2026-05-04 09:39 | 43.85012 | 9.14675 | 36148 ft | 405 kts | 236° |
| 2026-05-04 09:39 | 43.81776 | 9.08289 | 36159 ft | 405 kts | 236° |
| 2026-05-04 09:40 | 43.78563 | 9.01964 | 36155 ft | 404 kts | 236° |
| 2026-05-04 09:40 | 43.75332 | 8.95607 | 36146 ft | 403 kts | 236° |
| 2026-05-04 09:42 | 43.60837 | 8.72439 | 36128 ft | 412 kts | 204° |
| 2026-05-04 09:43 | 43.58053 | 8.71418 | 36133 ft | 418 kts | 192° |
| 2026-05-04 09:43 | 43.55124 | 8.71208 | 36115 ft | 422 kts | 185° |
| 2026-05-04 09:43 | 43.52271 | 8.70755 | 36112 ft | 411 kts | 203° |
| 2026-05-04 09:43 | 43.49730 | 8.69064 | 36094 ft | 403 kts | 216° |
| 2026-05-04 09:44 | 43.44903 | 8.65114 | 36091 ft | 405 kts | 213° |
| 2026-05-04 09:46 | 43.26725 | 8.47389 | 36079 ft | 400 kts | 227° |
| 2026-05-04 09:46 | 43.22684 | 8.42147 | 36098 ft | 400 kts | 226° |
| 2026-05-04 09:47 | 43.18543 | 8.37031 | 36102 ft | 400 kts | 225° |
| 2026-05-04 09:49 | 43.01991 | 8.16889 | 36112 ft | 396 kts | 225° |
| 2026-05-04 09:51 | 42.87617 | 7.99459 | 36108 ft | 394 kts | 225° |
| 2026-05-04 09:51 | 42.83510 | 7.94490 | 36119 ft | 394 kts | 225° |
| 2026-05-04 09:52 | 42.79407 | 7.89552 | 36119 ft | 393 kts | 225° |
| 2026-05-04 09:52 | 42.75326 | 7.84654 | 36111 ft | 392 kts | 225° |
| 2026-05-04 09:53 | 42.71233 | 7.79740 | 36097 ft | 391 kts | 225° |
| 2026-05-04 09:53 | 42.67148 | 7.74840 | 36099 ft | 391 kts | 225° |
| 2026-05-04 09:54 | 42.63062 | 7.69955 | 36097 ft | 391 kts | 225° |
| 2026-05-04 09:54 | 42.59007 | 7.65119 | 36093 ft | 391 kts | 225° |
| 2026-05-04 09:55 | 42.54922 | 7.60255 | 36094 ft | 391 kts | 225° |
| 2026-05-04 09:55 | 42.50839 | 7.55396 | 36107 ft | 390 kts | 225° |
| 2026-05-04 09:56 | 42.46756 | 7.50556 | 36110 ft | 390 kts | 225° |
| 2026-05-04 09:56 | 42.42679 | 7.45715 | 36105 ft | 389 kts | 225° |
| 2026-05-04 09:57 | 42.38637 | 7.40928 | 36101 ft | 388 kts | 225° |
| 2026-05-04 09:57 | 42.34560 | 7.36115 | 36081 ft | 388 kts | 225° |
| 2026-05-04 09:58 | 42.30489 | 7.31325 | 36085 ft | 387 kts | 225° |
| 2026-05-04 09:58 | 42.26429 | 7.26546 | 36087 ft | 387 kts | 225° |
| 2026-05-04 10:00 | 42.10895 | 7.08339 | 36079 ft | 386 kts | 225° |
| 2026-05-04 10:04 | 41.83038 | 6.74714 | 36091 ft | 382 kts | 227° |
| 2026-05-04 10:04 | 41.79108 | 6.69927 | 36067 ft | 381 kts | 227° |
| 2026-05-04 10:05 | 41.75185 | 6.65162 | 36068 ft | 380 kts | 227° |
| 2026-05-04 10:05 | 41.71287 | 6.60431 | 36071 ft | 380 kts | 227° |
| 2026-05-04 10:06 | 41.67364 | 6.55678 | 36074 ft | 380 kts | 226° |
| 2026-05-04 10:06 | 41.63444 | 6.50939 | 36069 ft | 380 kts | 227° |
| 2026-05-04 10:08 | 41.49768 | 6.34445 | 36076 ft | 377 kts | 226° |
| 2026-05-04 10:08 | 41.45868 | 6.29768 | 36074 ft | 377 kts | 226° |
| 2026-05-04 10:09 | 41.41970 | 6.25101 | 36069 ft | 376 kts | 226° |
| 2026-05-04 10:09 | 41.38095 | 6.20465 | 36048 ft | 376 kts | 226° |
| 2026-05-04 10:10 | 41.34200 | 6.15809 | 36057 ft | 375 kts | 226° |
| 2026-05-04 10:10 | 41.30308 | 6.11156 | 36061 ft | 375 kts | 226° |
| 2026-05-04 10:11 | 41.26425 | 6.06524 | 36076 ft | 375 kts | 226° |
| 2026-05-04 10:11 | 41.22563 | 6.01936 | 36074 ft | 373 kts | 226° |
| 2026-05-04 10:12 | 41.18680 | 5.97329 | 36040 ft | 373 kts | 226° |
| 2026-05-04 10:12 | 41.14811 | 5.92757 | 36044 ft | 372 kts | 226° |
| 2026-05-04 10:13 | 41.10965 | 5.88210 | 36050 ft | 372 kts | 226° |
| 2026-05-04 10:13 | 41.07107 | 5.83646 | 36052 ft | 372 kts | 226° |
| 2026-05-04 10:14 | 41.03244 | 5.79085 | 36051 ft | 372 kts | 226° |
| 2026-05-04 10:16 | 40.90915 | 5.61970 | 36044 ft | 366 kts | 237° |
| 2026-05-04 10:16 | 40.89444 | 5.59219 | 36046 ft | 366 kts | 237° |
| 2026-05-04 10:16 | 40.86497 | 5.53726 | 35911 ft | 367 kts | 237° |
| 2026-05-04 10:17 | 40.85027 | 5.50993 | 35670 ft | 365 kts | 237° |
| 2026-05-04 10:17 | 40.83558 | 5.48262 | 35415 ft | 363 kts | 237° |
| 2026-05-04 10:19 | 40.73579 | 5.29780 | 33377 ft | 341 kts | 237° |
| 2026-05-04 10:19 | 40.72212 | 5.27251 | 32968 ft | 336 kts | 237° |
| 2026-05-04 10:19 | 40.70862 | 5.24753 | 32571 ft | 333 kts | 237° |
| 2026-05-04 10:19 | 40.69529 | 5.22287 | 32161 ft | 329 kts | 236° |
| 2026-05-04 10:20 | 40.68210 | 5.19849 | 31775 ft | 324 kts | 236° |
| 2026-05-04 10:20 | 40.66905 | 5.17442 | 31393 ft | 320 kts | 236° |
| 2026-05-04 10:20 | 40.65618 | 5.15071 | 31013 ft | 316 kts | 236° |
| 2026-05-04 10:20 | 40.64346 | 5.12730 | 30647 ft | 312 kts | 236° |
| 2026-05-04 10:21 | 40.63101 | 5.10443 | 30294 ft | 309 kts | 236° |
| 2026-05-04 10:21 | 40.61854 | 5.08158 | 29913 ft | 306 kts | 236° |
| 2026-05-04 10:21 | 40.60623 | 5.05905 | 29555 ft | 301 kts | 236° |
| 2026-05-04 10:21 | 40.59412 | 5.03692 | 29218 ft | 295 kts | 236° |
| 2026-05-04 10:22 | 40.57045 | 4.99361 | 28579 ft | 291 kts | 236° |
| 2026-05-04 10:22 | 40.55863 | 4.97197 | 28254 ft | 291 kts | 236° |
| 2026-05-04 10:22 | 40.54684 | 4.95035 | 27949 ft | 291 kts | 236° |
| 2026-05-04 10:23 | 40.53507 | 4.92879 | 27604 ft | 290 kts | 235° |
| 2026-05-04 10:23 | 40.52332 | 4.90724 | 27277 ft | 289 kts | 236° |
| 2026-05-04 10:25 | 40.44130 | 4.75777 | 24862 ft | 288 kts | 236° |
| 2026-05-04 10:25 | 40.42972 | 4.73666 | 24440 ft | 288 kts | 236° |
| 2026-05-04 10:25 | 40.41797 | 4.71530 | 24020 ft | 289 kts | 236° |
| 2026-05-04 10:25 | 40.40620 | 4.69392 | 23587 ft | 289 kts | 236° |
| 2026-05-04 10:26 | 40.39439 | 4.67250 | 23110 ft | 290 kts | 236° |
| 2026-05-04 10:26 | 40.38255 | 4.65110 | 22782 ft | 295 kts | 236° |
| 2026-05-04 10:26 | 40.37015 | 4.62866 | 22516 ft | 308 kts | 236° |
| 2026-05-04 10:26 | 40.35752 | 4.60584 | 22231 ft | 310 kts | 236° |
| 2026-05-04 10:27 | 40.34483 | 4.58291 | 21943 ft | 310 kts | 236° |
| 2026-05-04 10:27 | 40.33219 | 4.56006 | 21660 ft | 309 kts | 236° |
| 2026-05-04 10:27 | 40.31962 | 4.53734 | 21366 ft | 307 kts | 236° |
| 2026-05-04 10:27 | 40.30708 | 4.51469 | 21082 ft | 307 kts | 236° |
| 2026-05-04 10:28 | 40.29456 | 4.49209 | 20798 ft | 306 kts | 236° |
| 2026-05-04 10:28 | 40.28203 | 4.46947 | 20515 ft | 306 kts | 236° |
| 2026-05-04 10:28 | 40.26954 | 4.44694 | 20225 ft | 306 kts | 236° |
| 2026-05-04 10:28 | 40.25716 | 4.42463 | 19946 ft | 305 kts | 236° |
| 2026-05-04 10:29 | 40.24465 | 4.40217 | 19661 ft | 305 kts | 236° |
| 2026-05-04 10:29 | 40.23214 | 4.37974 | 19381 ft | 305 kts | 236° |
| 2026-05-04 10:29 | 40.21961 | 4.35729 | 19101 ft | 305 kts | 236° |
| 2026-05-04 10:29 | 40.20712 | 4.33490 | 18816 ft | 304 kts | 236° |
| 2026-05-04 10:30 | 40.19464 | 4.31253 | 18530 ft | 304 kts | 236° |
| 2026-05-04 10:30 | 40.18216 | 4.29019 | 18239 ft | 304 kts | 235° |
| 2026-05-04 10:30 | 40.16967 | 4.26785 | 17929 ft | 303 kts | 235° |
| 2026-05-04 10:30 | 40.15729 | 4.24571 | 17655 ft | 301 kts | 235° |
| 2026-05-04 10:31 | 40.14492 | 4.22359 | 17375 ft | 300 kts | 235° |
| 2026-05-04 10:31 | 40.13262 | 4.20159 | 17096 ft | 299 kts | 235° |
| 2026-05-04 10:32 | 40.05971 | 4.07162 | 15450 ft | 293 kts | 234° |
| 2026-05-04 10:33 | 40.04763 | 4.05019 | 15184 ft | 293 kts | 234° |
| 2026-05-04 10:33 | 40.03552 | 4.02874 | 14914 ft | 292 kts | 234° |
| 2026-05-04 10:33 | 40.02352 | 4.00747 | 14642 ft | 291 kts | 234° |
| 2026-05-04 10:33 | 40.01153 | 3.98621 | 14370 ft | 290 kts | 234° |
| 2026-05-04 10:34 | 39.99958 | 3.96501 | 14094 ft | 290 kts | 234° |
| 2026-05-04 10:34 | 39.98781 | 3.94410 | 13830 ft | 289 kts | 234° |
| 2026-05-04 10:34 | 39.97588 | 3.92292 | 13548 ft | 288 kts | 234° |
| 2026-05-04 10:34 | 39.96403 | 3.90192 | 13260 ft | 287 kts | 234° |
| 2026-05-04 10:35 | 39.95222 | 3.88106 | 12997 ft | 285 kts | 234° |
| 2026-05-04 10:35 | 39.94046 | 3.86032 | 12737 ft | 283 kts | 234° |
| 2026-05-04 10:35 | 39.92877 | 3.83973 | 12474 ft | 282 kts | 234° |
| 2026-05-04 10:35 | 39.91712 | 3.81920 | 12208 ft | 281 kts | 234° |
| 2026-05-04 10:36 | 39.90548 | 3.79869 | 11952 ft | 281 kts | 234° |
| 2026-05-04 10:36 | 39.89391 | 3.77827 | 11684 ft | 280 kts | 234° |
| 2026-05-04 10:36 | 39.88255 | 3.75820 | 11427 ft | 279 kts | 234° |
| 2026-05-04 10:36 | 39.87105 | 3.73788 | 11166 ft | 278 kts | 233° |
| 2026-05-04 10:37 | 39.85958 | 3.71769 | 10908 ft | 277 kts | 233° |
| 2026-05-04 10:37 | 39.84810 | 3.69752 | 10652 ft | 276 kts | 233° |
| 2026-05-04 10:37 | 39.83667 | 3.67751 | 10397 ft | 276 kts | 233° |
| 2026-05-04 10:37 | 39.82523 | 3.65746 | 10119 ft | 275 kts | 233° |
| 2026-05-04 10:39 | 39.75841 | 3.54038 | 8625 ft | 262 kts | 233° |
| 2026-05-04 10:39 | 39.74755 | 3.52146 | 8376 ft | 260 kts | 233° |
| 2026-05-04 10:39 | 39.73679 | 3.50272 | 8136 ft | 258 kts | 233° |
| 2026-05-04 10:40 | 39.72611 | 3.48407 | 7903 ft | 257 kts | 233° |
| 2026-05-04 10:40 | 39.71547 | 3.46546 | 7660 ft | 255 kts | 233° |
| 2026-05-04 10:40 | 39.70509 | 3.44681 | 7422 ft | 254 kts | 238° |
| 2026-05-04 10:40 | 39.69773 | 3.42595 | 7192 ft | 254 kts | 252° |
| 2026-05-04 10:41 | 39.69446 | 3.40336 | 6952 ft | 255 kts | 261° |
| 2026-05-04 10:41 | 39.69220 | 3.38080 | 6720 ft | 254 kts | 260° |